createdAt,value
2022-12-11T00:00:30.595Z,6.57
2022-12-11T00:02:57.651Z,7.40
2022-12-11T00:05:24.672Z,9.35
2022-12-11T00:07:51.605Z,7.78
2022-12-11T00:10:18.473Z,8.10
2022-12-11T00:12:45.356Z,6.63
2022-12-11T00:15:12.620Z,7.22
2022-12-11T00:17:39.835Z,8.88
2022-12-11T00:20:08.154Z,9.35
2022-12-11T00:22:35.073Z,8.57
2022-12-11T00:25:02.072Z,10.02
2022-12-11T00:27:28.873Z,9.02
2022-12-11T00:29:55.721Z,10.95
2022-12-11T00:32:22.892Z,14.18
2022-12-11T00:34:49.707Z,14.57
2022-12-11T00:37:16.696Z,9.48
2022-12-11T00:39:43.613Z,8.70
2022-12-11T00:42:10.488Z,7.13
2022-12-11T00:44:37.397Z,6.07
2022-12-11T00:47:04.308Z,5.00
2022-12-11T00:49:31.403Z,5.78
2022-12-11T00:51:58.348Z,5.07
2022-12-11T00:54:25.257Z,5.65
2022-12-11T00:56:52.178Z,5.93
2022-12-11T00:59:19.975Z,8.23
2022-12-11T01:01:46.854Z,8.27
2022-12-11T01:04:13.787Z,7.15
2022-12-11T01:06:40.744Z,4.70
2022-12-11T01:09:26.463Z,6.00
2022-12-11T01:11:53.472Z,10.70
2022-12-11T01:14:20.391Z,4.75
2022-12-11T01:16:47.336Z,7.45
2022-12-11T01:19:14.275Z,9.30
2022-12-11T01:21:41.253Z,9.80
2022-12-11T01:24:08.279Z,7.47
2022-12-11T01:26:35.150Z,5.30
2022-12-11T01:29:02.307Z,6.07
2022-12-11T01:31:29.725Z,7.65
2022-12-11T01:33:56.739Z,11.50
2022-12-11T01:36:24.479Z,9.25
2022-12-11T01:38:51.533Z,9.95
2022-12-11T01:41:19.080Z,9.48
2022-12-11T01:44:07.745Z,6.95
2022-12-11T01:46:36.488Z,8.05
2022-12-11T01:49:07.497Z,7.82
2022-12-11T01:51:42.802Z,11.23
2022-12-11T01:54:13.750Z,13.63
2022-12-11T01:56:43.819Z,10.15
2022-12-11T01:59:15.677Z,5.30
2022-12-11T02:02:22.881Z,7.45
2022-12-11T02:04:49.893Z,5.97
2022-12-11T02:07:16.940Z,10.48
2022-12-11T02:09:47.119Z,4.72
2022-12-11T02:12:41.587Z,5.38
2022-12-11T02:15:25.506Z,4.70
2022-12-11T02:18:10.473Z,5.03
2022-12-11T02:20:55.890Z,5.03
2022-12-11T02:23:46.940Z,4.85
2022-12-11T02:26:49.510Z,4.32
2022-12-11T02:29:25.990Z,4.50
2022-12-11T02:32:08.001Z,4.30
2022-12-11T02:34:43.632Z,4.60
2022-12-11T02:37:19.258Z,4.10
2022-12-11T02:39:49.141Z,4.40
2022-12-11T02:42:16.705Z,3.83
2022-12-11T02:44:46.462Z,4.20
2022-12-11T02:47:16.795Z,3.90
2022-12-11T02:49:47.008Z,4.00
2022-12-11T02:52:17.700Z,4.57
2022-12-11T02:54:46.693Z,3.47
2022-12-11T02:57:25.908Z,4.07
2022-12-11T02:59:52.797Z,3.47
2022-12-11T03:02:19.718Z,3.80
2022-12-11T03:04:47.672Z,3.90
2022-12-11T03:07:23.508Z,3.38
2022-12-11T03:09:51.148Z,3.85
2022-12-11T03:12:29.401Z,3.70
2022-12-11T03:14:59.735Z,3.60
2022-12-11T03:17:44.607Z,4.57
2022-12-11T03:20:20.507Z,4.57
2022-12-11T03:22:54.990Z,4.40
2022-12-11T03:25:23.473Z,4.53
2022-12-11T03:27:52.983Z,4.70
2022-12-11T03:30:22.450Z,4.45
2022-12-11T03:32:55.130Z,5.22
2022-12-11T03:35:27.716Z,5.32
2022-12-11T03:37:56.926Z,5.78
2022-12-11T03:40:26.169Z,5.90
2022-12-11T03:42:56.820Z,6.00
2022-12-11T03:45:26.277Z,6.53
2022-12-11T03:47:55.951Z,5.13
2022-12-11T03:50:26.129Z,5.28
2022-12-11T03:52:54.496Z,5.63
2022-12-11T03:55:23.026Z,5.50
2022-12-11T03:57:50.018Z,5.20
2022-12-11T04:00:20.044Z,5.45
2022-12-11T04:03:12.740Z,6.18
2022-12-11T04:05:44.101Z,5.72
2022-12-11T04:08:11.435Z,5.72
2022-12-11T04:10:38.869Z,5.88
2022-12-11T04:13:05.923Z,5.28
2022-12-11T04:15:33.196Z,5.32
2022-12-11T04:18:18.610Z,4.78
2022-12-11T04:21:04.185Z,4.93
2022-12-11T04:23:49.478Z,4.88
2022-12-11T04:26:18.834Z,4.95
2022-12-11T04:28:49.362Z,5.25
2022-12-11T04:31:22.527Z,5.18
2022-12-11T04:33:49.646Z,4.85
2022-12-11T04:36:16.866Z,4.90
2022-12-11T04:38:43.781Z,4.43
2022-12-11T04:41:13.926Z,4.72
2022-12-11T04:43:40.888Z,4.40
2022-12-11T04:46:12.851Z,4.60
2022-12-11T04:51:07.460Z,4.55
2022-12-11T04:53:35.270Z,4.13
2022-12-11T04:56:05.939Z,4.10
2022-12-11T04:58:33.074Z,4.13
2022-12-11T05:00:59.919Z,4.63
2022-12-11T05:03:26.934Z,8.00
2022-12-11T05:05:54.228Z,6.75
2022-12-11T05:08:21.783Z,7.18
2022-12-11T05:11:06.933Z,6.05
2022-12-11T05:13:33.985Z,4.70
2022-12-11T05:16:03.246Z,4.45
2022-12-11T05:18:30.077Z,4.15
2022-12-11T05:21:09.502Z,4.75
2022-12-11T05:23:36.857Z,4.93
2022-12-11T05:26:06.785Z,4.55
2022-12-11T05:28:36.846Z,5.18
2022-12-11T05:31:11.811Z,5.88
2022-12-11T05:33:38.749Z,6.43
2022-12-11T05:36:07.662Z,8.35
2022-12-11T05:38:34.680Z,7.18
2022-12-11T05:41:03.979Z,6.25
2022-12-11T05:43:34.058Z,5.90
2022-12-11T05:46:08.922Z,5.50
2022-12-11T05:48:36.959Z,5.38
2022-12-11T05:51:05.237Z,5.13
2022-12-11T05:53:33.042Z,5.75
2022-12-11T05:56:08.384Z,4.82
2022-12-11T05:58:35.521Z,4.70
2022-12-11T06:01:06.716Z,8.77
2022-12-11T06:03:33.609Z,5.40
2022-12-11T06:06:07.695Z,5.20
2022-12-11T06:08:35.342Z,4.90
2022-12-11T06:11:03.127Z,4.15
2022-12-11T06:13:30.303Z,4.65
2022-12-11T06:16:01.982Z,4.78
2022-12-11T06:18:28.898Z,4.50
2022-12-11T06:20:55.770Z,4.53
2022-12-11T06:23:22.826Z,4.35
2022-12-11T06:25:49.647Z,4.70
2022-12-11T06:28:16.676Z,4.45
2022-12-11T06:30:43.721Z,4.88
2022-12-11T06:33:10.743Z,4.85
2022-12-11T06:36:32.138Z,5.78
2022-12-11T06:38:59.142Z,4.38
2022-12-11T06:41:26.116Z,4.30
2022-12-11T06:43:52.940Z,4.47
2022-12-11T06:46:20.364Z,4.13
2022-12-11T06:48:47.999Z,4.43
2022-12-11T06:51:17.510Z,4.45
2022-12-11T06:53:44.677Z,4.28
2022-12-11T06:56:14.978Z,4.43
2022-12-11T06:58:43.153Z,5.28
2022-12-11T07:01:19.934Z,6.18
2022-12-11T07:03:47.571Z,6.50
2022-12-11T07:06:15.404Z,6.90
2022-12-11T07:08:42.282Z,6.53
2022-12-11T07:11:12.556Z,4.97
2022-12-11T07:13:39.619Z,4.70
2022-12-11T07:16:10.840Z,4.40
2022-12-11T07:18:39.192Z,4.40
2022-12-11T07:21:07.279Z,4.40
2022-12-11T07:23:35.505Z,4.85
2022-12-11T07:26:07.546Z,6.07
2022-12-11T07:28:35.109Z,5.60
2022-12-11T07:31:09.686Z,9.65
2022-12-11T07:33:36.621Z,5.15
2022-12-11T07:36:06.009Z,5.10
2022-12-11T07:38:33.031Z,4.72
2022-12-11T07:41:08.610Z,7.47
2022-12-11T07:43:36.383Z,9.05
2022-12-11T07:46:05.649Z,11.27
2022-12-11T07:48:32.707Z,12.07
2022-12-11T07:51:12.600Z,11.05
2022-12-11T07:53:39.439Z,5.97
2022-12-11T07:56:07.045Z,3.90
2022-12-11T07:58:34.445Z,4.07
2022-12-11T08:01:01.320Z,8.68
2022-12-11T08:03:28.151Z,8.65
2022-12-11T08:05:55.533Z,9.25
2022-12-11T08:08:22.483Z,7.72
2022-12-11T08:10:49.491Z,5.55
2022-12-11T08:13:16.373Z,4.53
2022-12-11T08:15:43.272Z,4.93
2022-12-11T08:18:10.229Z,3.50
2022-12-11T08:20:39.242Z,3.88
2022-12-11T08:23:06.134Z,2.97
2022-12-11T08:25:33.111Z,2.83
2022-12-11T08:27:59.917Z,2.80
2022-12-11T08:30:26.832Z,2.63
2022-12-11T08:32:53.818Z,2.70
2022-12-11T08:35:20.702Z,3.55
2022-12-11T08:37:47.557Z,2.65
2022-12-11T08:40:14.515Z,2.95
2022-12-11T08:42:41.498Z,3.05
2022-12-11T08:45:09.399Z,3.60
2022-12-11T08:47:36.754Z,5.43
2022-12-11T08:50:04.571Z,3.47
2022-12-11T08:52:34.549Z,3.05
2022-12-11T08:55:01.424Z,3.00
2022-12-11T08:57:28.740Z,4.53
2022-12-11T08:59:55.614Z,7.38
2022-12-11T09:02:22.738Z,2.92
2022-12-11T09:04:49.711Z,3.15
2022-12-11T09:07:16.657Z,3.08
2022-12-11T09:09:43.627Z,5.55
2022-12-11T09:12:10.481Z,4.38
2022-12-11T09:14:37.280Z,3.33
2022-12-11T09:17:05.601Z,3.35
2022-12-11T09:19:32.749Z,2.85
2022-12-11T09:21:59.666Z,3.33
2022-12-11T09:24:26.441Z,3.30
2022-12-11T09:26:54.664Z,2.78
2022-12-11T09:29:21.464Z,3.78
2022-12-11T09:31:49.606Z,3.78
2022-12-11T09:34:16.411Z,3.92
2022-12-11T09:36:44.383Z,4.10
2022-12-11T09:39:13.225Z,3.45
2022-12-11T09:41:53.145Z,4.07
2022-12-11T09:44:31.570Z,3.63
2022-12-11T09:46:59.615Z,4.10
2022-12-11T09:49:58.245Z,6.53
2022-12-11T09:52:58.053Z,6.57
2022-12-11T09:55:29.851Z,4.00
2022-12-11T10:00:37.542Z,2.03
2022-12-11T10:03:19.250Z,2.22
2022-12-11T10:06:02.681Z,3.90
2022-12-11T10:08:31.327Z,3.60
2022-12-11T10:11:40.374Z,3.03
2022-12-11T10:14:45.768Z,4.60
2022-12-11T10:17:15.961Z,3.55
2022-12-11T10:19:43.162Z,4.90
2022-12-11T10:22:30.191Z,2.55
2022-12-11T10:25:16.561Z,2.50
2022-12-11T10:27:44.856Z,2.58
2022-12-11T10:30:24.204Z,2.33
2022-12-11T10:32:52.830Z,2.65
2022-12-11T10:35:24.744Z,2.70
2022-12-11T10:37:55.759Z,1.95
2022-12-11T10:40:24.797Z,2.65
2022-12-11T10:42:55.362Z,2.70
2022-12-11T10:45:22.272Z,4.00
2022-12-11T10:47:49.212Z,3.33
2022-12-11T10:50:24.718Z,2.80
2022-12-11T10:52:53.302Z,2.55
2022-12-11T10:55:31.290Z,2.25
2022-12-11T10:58:01.554Z,2.97
2022-12-11T11:00:35.619Z,2.47
2022-12-11T11:03:03.582Z,2.67
2022-12-11T11:05:36.698Z,2.20
2022-12-11T11:08:25.453Z,2.22
2022-12-11T11:10:56.806Z,2.53
2022-12-11T11:13:26.671Z,2.83
2022-12-11T11:16:21.917Z,2.88
2022-12-11T11:18:56.286Z,2.22
2022-12-11T11:21:26.362Z,2.78
2022-12-11T11:23:54.485Z,3.00
2022-12-11T11:26:38.269Z,2.35
2022-12-11T11:29:25.719Z,2.30
2022-12-11T11:31:52.603Z,2.05
2022-12-11T11:34:22.399Z,2.20
2022-12-11T11:36:58.853Z,2.25
2022-12-11T11:39:25.979Z,2.30
2022-12-11T11:42:02.945Z,2.63
2022-12-11T11:44:37.868Z,2.40
2022-12-11T11:47:19.505Z,1.73
2022-12-11T11:50:08.631Z,2.00
2022-12-11T11:52:46.634Z,1.88
2022-12-11T11:55:26.422Z,2.03
2022-12-11T11:58:02.399Z,1.90
2022-12-11T12:00:33.846Z,1.95
2022-12-11T12:03:02.225Z,3.17
2022-12-11T12:05:44.125Z,2.25
2022-12-11T12:08:26.204Z,3.97
2022-12-11T12:11:19.957Z,3.28
2022-12-11T12:14:29.136Z,2.70
2022-12-11T12:17:23.327Z,2.45
2022-12-11T12:20:08.063Z,1.92
2022-12-11T12:22:34.844Z,2.80
2022-12-11T12:25:39.159Z,2.63
2022-12-11T12:28:52.019Z,2.30
2022-12-11T12:31:27.877Z,3.50
2022-12-11T12:34:31.809Z,2.60
2022-12-11T12:37:45.797Z,2.45
2022-12-11T12:40:21.964Z,2.33
2022-12-11T12:43:16.916Z,2.67
2022-12-11T12:45:59.045Z,3.67
2022-12-11T12:48:27.460Z,3.45
2022-12-11T12:50:56.384Z,3.10
2022-12-11T12:53:27.726Z,3.90
2022-12-11T12:55:55.405Z,3.65
2022-12-11T12:58:45.183Z,2.50
2022-12-11T13:01:22.446Z,2.38
2022-12-11T13:03:56.680Z,2.53
2022-12-11T13:06:40.779Z,2.50
2022-12-11T13:09:18.154Z,3.40
2022-12-11T13:11:50.228Z,2.85
2022-12-11T13:14:17.030Z,2.70
2022-12-11T13:16:46.371Z,2.67
2022-12-11T13:19:20.240Z,2.80
2022-12-11T13:22:02.240Z,3.38
2022-12-11T13:24:32.069Z,3.78
2022-12-11T13:27:10.628Z,4.13
2022-12-11T13:29:42.120Z,4.03
2022-12-11T13:32:18.230Z,3.10
2022-12-11T13:34:55.112Z,3.08
2022-12-11T13:37:31.953Z,3.03
2022-12-11T13:40:00.847Z,3.70
2022-12-11T13:42:35.518Z,3.30
2022-12-11T13:45:04.409Z,3.15
2022-12-11T13:47:32.971Z,3.80
2022-12-11T13:50:20.733Z,3.22
2022-12-11T13:52:58.711Z,3.75
2022-12-11T13:55:28.461Z,4.00
2022-12-11T13:57:55.283Z,2.92
2022-12-11T14:00:32.266Z,4.00
2022-12-11T14:03:03.143Z,4.05
2022-12-11T14:05:30.293Z,3.45
2022-12-11T14:08:01.977Z,2.92
2022-12-11T14:10:31.740Z,2.85
2022-12-11T14:13:02.809Z,2.75
2022-12-11T14:15:32.840Z,2.90
2022-12-11T14:18:00.909Z,3.00
2022-12-11T14:20:34.005Z,2.70
2022-12-11T14:23:08.336Z,2.70
2022-12-11T14:25:35.181Z,3.15
2022-12-11T14:28:02.117Z,3.15
2022-12-11T14:30:31.966Z,3.47
2022-12-11T14:33:02.745Z,2.70
2022-12-11T14:35:38.730Z,2.20
2022-12-11T14:38:16.293Z,2.90
2022-12-11T14:40:47.531Z,4.97
2022-12-11T14:43:42.771Z,4.32
2022-12-11T14:46:17.912Z,7.07
2022-12-11T14:49:01.333Z,13.95
2022-12-11T14:51:34.608Z,5.57
2022-12-11T14:54:04.237Z,5.40
2022-12-11T14:56:31.927Z,3.97
2022-12-11T14:59:03.985Z,5.95
2022-12-11T15:01:36.059Z,4.78
2022-12-11T15:04:16.262Z,6.05
2022-12-11T15:06:47.979Z,8.23
2022-12-11T15:09:17.762Z,26.90
2022-12-11T15:11:45.809Z,23.60
2022-12-11T15:14:14.296Z,28.92
2022-12-11T15:16:42.355Z,2.88
2022-12-11T15:19:20.968Z,3.33
2022-12-11T15:21:48.079Z,3.45
2022-12-11T15:24:43.495Z,3.95
2022-12-11T15:27:37.988Z,3.20
2022-12-11T15:30:21.918Z,2.03
2022-12-11T15:35:26.872Z,1.75
2022-12-11T15:37:55.761Z,1.98
2022-12-11T15:40:23.312Z,1.70
2022-12-11T15:42:51.323Z,2.10
2022-12-11T15:45:21.669Z,1.80
2022-12-11T15:47:49.031Z,4.30
2022-12-11T15:50:25.010Z,2.00
2022-12-11T15:52:53.469Z,1.80
2022-12-11T15:55:21.608Z,2.03
2022-12-11T15:57:53.245Z,2.33
2022-12-11T16:00:21.365Z,2.10
2022-12-11T16:02:48.463Z,2.08
2022-12-11T16:05:15.905Z,2.10
2022-12-11T16:07:43.017Z,2.20
2022-12-11T16:10:15.319Z,1.85
2022-12-11T16:12:43.497Z,2.08
2022-12-11T16:15:21.471Z,2.47
2022-12-11T16:17:50.188Z,2.42
2022-12-11T16:20:17.787Z,2.22
2022-12-11T16:22:44.784Z,1.73
2022-12-11T16:25:11.953Z,1.90
2022-12-11T16:27:39.123Z,2.25
2022-12-11T16:30:06.677Z,1.60
2022-12-11T16:32:33.764Z,1.92
2022-12-11T16:35:01.327Z,1.60
2022-12-11T16:37:28.305Z,1.75
2022-12-11T16:39:55.281Z,2.10
2022-12-11T16:42:22.164Z,2.03
2022-12-11T16:44:49.152Z,2.20
2022-12-11T16:47:16.179Z,1.77
2022-12-11T16:49:43.448Z,1.48
2022-12-11T16:52:10.775Z,1.88
2022-12-11T16:54:37.754Z,1.75
2022-12-11T16:57:04.700Z,2.40
2022-12-11T16:59:36.838Z,2.67
2022-12-11T17:02:04.889Z,1.88
2022-12-11T17:04:31.793Z,1.83
2022-12-11T17:06:58.811Z,1.95
2022-12-11T17:09:25.730Z,2.53
2022-12-11T17:11:53.645Z,2.00
2022-12-11T17:14:20.509Z,1.85
2022-12-11T17:16:48.246Z,1.73
2022-12-11T17:19:15.847Z,1.88
2022-12-11T17:21:45.893Z,1.85
2022-12-11T17:24:18.085Z,2.03
2022-12-11T17:26:44.927Z,2.03
2022-12-11T17:29:12.394Z,1.52
2022-12-11T17:31:39.645Z,1.65
2022-12-11T17:34:06.802Z,1.63
2022-12-11T17:36:33.824Z,1.83
2022-12-11T17:39:00.783Z,1.85
2022-12-11T17:41:27.701Z,2.50
2022-12-11T17:43:55.630Z,4.13
2022-12-11T17:46:22.641Z,8.95
2022-12-11T17:48:49.649Z,5.30
2022-12-11T17:51:22.058Z,5.25
2022-12-11T17:53:49.007Z,3.28
2022-12-11T17:56:16.691Z,2.85
2022-12-11T17:58:43.877Z,3.20
2022-12-11T18:01:13.258Z,2.55
2022-12-11T18:03:41.153Z,2.38
2022-12-11T18:06:11.248Z,3.50
2022-12-11T18:08:38.790Z,5.18
2022-12-11T18:11:11.996Z,11.25
2022-12-11T18:13:39.609Z,16.80
2022-12-11T18:16:10.407Z,14.50
2022-12-11T18:18:37.984Z,11.55
2022-12-11T18:21:05.819Z,9.40
2022-12-11T18:23:32.875Z,10.32
2022-12-11T18:26:00.612Z,9.65
2022-12-11T18:28:27.499Z,9.63
2022-12-11T18:30:54.503Z,10.48
2022-12-11T18:33:21.944Z,22.02
2022-12-11T18:35:50.621Z,23.17
2022-12-11T18:38:17.627Z,24.35
2022-12-11T18:40:45.388Z,22.92
2022-12-11T18:43:12.277Z,26.52
2022-12-11T18:45:41.656Z,19.25
2022-12-11T18:48:09.733Z,13.52
2022-12-11T18:50:36.598Z,12.82
2022-12-11T18:53:04.273Z,9.20
2022-12-11T18:55:32.013Z,2.55
2022-12-11T18:57:58.842Z,1.92
2022-12-11T19:00:25.954Z,1.92
2022-12-11T19:02:52.916Z,1.73
2022-12-11T19:05:19.906Z,1.23
2022-12-11T19:07:46.856Z,1.77
2022-12-11T19:10:14.337Z,1.35
2022-12-11T19:12:42.938Z,0.60
2022-12-11T19:15:10.701Z,0.77
2022-12-11T19:17:38.621Z,0.55
2022-12-11T19:20:25.399Z,1.15
2022-12-11T19:22:56.181Z,1.30
2022-12-11T19:25:23.192Z,1.20
2022-12-11T19:27:50.551Z,1.15
2022-12-11T19:30:17.508Z,0.90
2022-12-11T19:32:45.901Z,1.00
2022-12-11T19:35:15.105Z,1.08
2022-12-11T19:37:42.314Z,0.70
2022-12-11T19:40:09.740Z,1.10
2022-12-11T19:42:36.620Z,1.30
2022-12-11T19:45:03.882Z,1.95
2022-12-11T19:47:30.722Z,0.90
2022-12-11T19:49:57.702Z,0.70
2022-12-11T19:52:24.528Z,0.70
2022-12-11T19:54:51.376Z,0.60
2022-12-11T19:57:18.311Z,0.90
2022-12-11T19:59:45.957Z,0.90
2022-12-11T20:02:15.793Z,0.80
2022-12-11T20:04:42.721Z,0.60
2022-12-11T20:07:09.530Z,0.90
2022-12-11T20:09:36.461Z,0.70
2022-12-11T20:12:06.188Z,0.60
2022-12-11T20:14:33.121Z,1.00
2022-12-11T20:17:16.146Z,0.65
2022-12-11T20:19:43.067Z,1.33
2022-12-11T20:22:10.400Z,1.40
2022-12-11T20:24:37.840Z,1.27
2022-12-11T20:27:04.823Z,1.15
2022-12-11T20:29:32.184Z,1.40
2022-12-11T20:32:01.978Z,0.43
2022-12-11T20:34:28.891Z,1.02
2022-12-11T20:36:56.469Z,1.05
2022-12-11T20:39:24.697Z,0.90
2022-12-11T20:41:51.525Z,0.30
2022-12-11T20:44:20.350Z,0.32
2022-12-11T20:46:47.186Z,0.40
2022-12-11T20:49:14.153Z,0.28
2022-12-11T20:51:41.229Z,0.38
2022-12-11T20:54:08.430Z,0.50
2022-12-11T20:56:35.436Z,1.20
2022-12-11T20:59:02.312Z,0.85
2022-12-11T21:01:32.392Z,0.52
2022-12-11T21:03:59.884Z,0.40
2022-12-11T21:06:31.432Z,1.10
2022-12-11T21:09:07.020Z,0.32
2022-12-11T21:11:34.274Z,0.35
2022-12-11T21:14:01.289Z,0.30
2022-12-11T21:16:28.598Z,0.30
2022-12-11T21:18:57.508Z,0.50
2022-12-11T21:21:24.898Z,0.70
2022-12-11T21:23:51.826Z,1.00
2022-12-11T21:26:19.912Z,0.40
2022-12-11T21:28:46.994Z,0.43
2022-12-11T21:31:16.142Z,0.40
2022-12-11T21:33:43.079Z,1.10
2022-12-11T21:36:12.719Z,0.82
2022-12-11T21:38:40.999Z,0.43
2022-12-11T21:41:19.201Z,0.70
2022-12-11T21:44:56.217Z,0.20
2022-12-11T21:46:34.797Z,0.40
2022-12-11T21:49:01.798Z,0.30
2022-12-11T21:51:37.744Z,0.10
2022-12-11T21:54:07.172Z,0.20
2022-12-11T21:56:34.347Z,0.20
2022-12-11T21:59:01.737Z,0.50
2022-12-11T22:01:32.420Z,0.30
2022-12-11T22:04:00.028Z,0.40
2022-12-11T22:06:28.213Z,0.20
2022-12-11T22:08:55.127Z,0.25
2022-12-11T22:11:26.211Z,0.10
2022-12-11T22:13:53.405Z,0.40
2022-12-11T22:16:20.730Z,0.30
2022-12-11T22:18:48.078Z,0.32
2022-12-11T22:21:15.252Z,0.50
2022-12-11T22:23:43.635Z,0.40
2022-12-11T22:26:16.697Z,0.50
2022-12-11T22:28:43.744Z,0.52
2022-12-11T22:31:12.330Z,1.23
2022-12-11T22:33:39.577Z,0.93
2022-12-11T22:36:07.696Z,1.20
2022-12-11T22:38:35.102Z,1.30
2022-12-11T22:41:09.299Z,0.80
2022-12-11T22:43:36.076Z,1.48
2022-12-11T22:46:03.236Z,1.73
2022-12-11T22:48:30.175Z,1.40
2022-12-11T22:50:57.325Z,1.40
2022-12-11T22:53:24.156Z,1.15
2022-12-11T22:55:51.002Z,1.40
2022-12-11T22:58:21.774Z,1.83
2022-12-11T23:00:48.997Z,1.42
2022-12-11T23:03:16.622Z,0.80
2022-12-11T23:05:43.606Z,0.52
2022-12-11T23:08:10.646Z,0.35
2022-12-11T23:10:41.141Z,0.20
2022-12-11T23:13:08.035Z,0.30
2022-12-11T23:15:34.963Z,0.25
2022-12-11T23:18:01.813Z,0.30
2022-12-11T23:20:28.805Z,0.40
2022-12-11T23:22:55.880Z,0.80
2022-12-11T23:25:22.772Z,0.60
2022-12-11T23:27:49.828Z,0.60
2022-12-11T23:30:16.724Z,0.68
2022-12-11T23:32:43.581Z,0.90
2022-12-11T23:35:10.883Z,1.20
2022-12-11T23:37:37.979Z,1.20
2022-12-11T23:40:05.593Z,1.00
2022-12-11T23:42:33.932Z,1.10
2022-12-11T23:45:00.815Z,0.90
2022-12-11T23:47:27.635Z,1.10
2022-12-11T23:49:54.471Z,0.80
2022-12-11T23:52:22.699Z,0.60
2022-12-11T23:54:51.450Z,0.65
2022-12-11T23:57:18.378Z,0.40
2022-12-11T23:59:45.181Z,0.50
